createdAt,value
2022-09-10T00:01:36.294Z,3.40
2022-09-10T00:04:04.001Z,3.57
2022-09-10T00:06:34.347Z,3.67
2022-09-10T00:09:01.554Z,3.10
2022-09-10T00:11:32.219Z,3.20
2022-09-10T00:14:10.064Z,3.67
2022-09-10T00:16:36.945Z,3.00
2022-09-10T00:19:13.676Z,3.50
2022-09-10T00:21:40.481Z,3.03
2022-09-10T00:24:07.439Z,2.90
2022-09-10T00:26:39.388Z,3.37
2022-09-10T00:29:10.047Z,3.40
2022-09-10T00:31:39.949Z,3.20
2022-09-10T00:34:08.986Z,3.10
2022-09-10T00:36:42.151Z,3.30
2022-09-10T00:39:11.513Z,3.23
2022-09-10T00:41:39.810Z,3.40
2022-09-10T00:44:42.565Z,3.10
2022-09-10T00:47:47.695Z,3.37
2022-09-10T00:50:23.551Z,3.00
2022-09-10T00:52:53.316Z,3.10
2022-09-10T00:55:20.911Z,3.37
2022-09-10T00:57:51.512Z,2.63
2022-09-10T01:00:18.327Z,3.20
2022-09-10T01:02:44.986Z,3.23
2022-09-10T01:05:13.268Z,3.37
2022-09-10T01:07:40.322Z,3.40
2022-09-10T01:10:12.904Z,3.37
2022-09-10T01:12:56.008Z,3.00
2022-09-10T01:15:44.344Z,3.50
2022-09-10T01:18:22.957Z,3.17
2022-09-10T01:21:16.453Z,3.43
2022-09-10T01:24:29.363Z,3.40
2022-09-10T01:27:28.507Z,3.33
2022-09-10T01:30:05.268Z,3.63
2022-09-10T01:32:56.449Z,3.23
2022-09-10T01:35:46.987Z,3.10
2022-09-10T01:38:31.756Z,3.30
2022-09-10T01:40:59.097Z,3.37
2022-09-10T01:43:29.565Z,3.00
2022-09-10T01:46:14.713Z,2.60
2022-09-10T01:48:55.048Z,2.70
2022-09-10T01:51:28.294Z,2.90
2022-09-10T01:54:13.585Z,2.90
2022-09-10T01:56:54.838Z,3.20
2022-09-10T02:00:22.026Z,2.63
2022-09-10T02:02:56.488Z,2.93
2022-09-10T02:05:35.090Z,2.60
2022-09-10T02:08:11.617Z,2.77
2022-09-10T02:10:59.164Z,2.70
2022-09-10T02:13:30.001Z,3.00
2022-09-10T02:16:28.676Z,2.73
2022-09-10T02:18:58.951Z,2.77
2022-09-10T02:21:25.867Z,3.10
2022-09-10T02:23:59.099Z,2.83
2022-09-10T02:26:28.430Z,3.23
2022-09-10T02:28:55.163Z,3.27
2022-09-10T02:31:22.517Z,2.97
2022-09-10T02:33:49.539Z,2.90
2022-09-10T02:36:16.215Z,2.70
2022-09-10T02:38:42.793Z,2.70
2022-09-10T02:41:09.657Z,3.00
2022-09-10T02:43:37.970Z,2.90
2022-09-10T02:46:08.462Z,2.67
2022-09-10T02:48:37.197Z,2.87
2022-09-10T02:51:04.511Z,2.40
2022-09-10T02:53:31.577Z,3.03
2022-09-10T02:56:03.006Z,2.80
2022-09-10T02:58:34.101Z,2.57
2022-09-10T03:01:08.641Z,3.27
2022-09-10T03:03:36.343Z,3.00
2022-09-10T03:06:04.141Z,2.87
2022-09-10T03:08:31.162Z,2.80
2022-09-10T03:10:59.770Z,3.00
2022-09-10T03:13:30.179Z,3.10
2022-09-10T03:15:59.713Z,2.70
2022-09-10T03:18:28.047Z,2.73
2022-09-10T03:20:54.712Z,2.93
2022-09-10T03:23:21.345Z,3.03
2022-09-10T03:25:49.949Z,2.70
2022-09-10T03:28:20.273Z,2.80
2022-09-10T03:30:48.188Z,2.70
2022-09-10T03:33:21.001Z,2.27
2022-09-10T03:35:52.208Z,2.90
2022-09-10T03:38:18.865Z,2.50
2022-09-10T03:40:46.302Z,2.83
2022-09-10T03:43:12.970Z,3.00
2022-09-10T03:45:39.893Z,3.47
2022-09-10T03:48:06.499Z,2.70
2022-09-10T03:50:33.495Z,3.30
2022-09-10T03:53:00.624Z,3.80
2022-09-10T03:55:27.301Z,3.10
2022-09-10T03:57:53.998Z,2.90
2022-09-10T04:00:20.997Z,3.80
2022-09-10T04:02:48.937Z,3.30
2022-09-10T04:05:15.875Z,2.80
2022-09-10T04:07:42.863Z,2.87
2022-09-10T04:10:09.684Z,2.77
2022-09-10T04:12:36.933Z,3.20
2022-09-10T04:15:04.258Z,3.00
2022-09-10T04:17:31.577Z,3.07
2022-09-10T04:19:58.680Z,2.60
2022-09-10T04:22:25.323Z,2.67
2022-09-10T04:24:52.056Z,2.83
2022-09-10T04:27:18.683Z,3.23
2022-09-10T04:29:45.444Z,2.97
2022-09-10T04:32:12.236Z,2.83
2022-09-10T04:34:38.880Z,3.03
2022-09-10T04:37:06.810Z,3.53
2022-09-10T04:39:34.109Z,2.70
2022-09-10T04:42:00.925Z,3.00
2022-09-10T04:44:29.383Z,2.93
2022-09-10T04:46:56.416Z,2.77
2022-09-10T04:49:23.381Z,2.87
2022-09-10T04:51:49.981Z,3.10
2022-09-10T04:54:16.894Z,3.10
2022-09-10T04:56:47.479Z,3.57
2022-09-10T04:59:14.180Z,3.40
2022-09-10T05:01:43.173Z,2.90
2022-09-10T05:04:10.189Z,3.50
2022-09-10T05:06:38.063Z,2.60
2022-09-10T05:09:06.971Z,3.47
2022-09-10T05:11:33.770Z,3.30
2022-09-10T05:14:00.503Z,3.00
2022-09-10T05:16:29.289Z,3.13
2022-09-10T05:18:57.171Z,3.20
2022-09-10T05:21:26.116Z,3.40
2022-09-10T05:23:55.988Z,3.60
2022-09-10T05:26:24.129Z,3.53
2022-09-10T05:28:53.207Z,3.10
2022-09-10T05:31:20.716Z,2.90
2022-09-10T05:33:47.555Z,4.13
2022-09-10T05:36:14.735Z,3.97
2022-09-10T05:38:42.707Z,3.27
2022-09-10T05:41:10.589Z,3.30
2022-09-10T05:43:41.844Z,3.37
2022-09-10T05:46:10.305Z,3.00
2022-09-10T05:48:41.610Z,3.30
2022-09-10T05:51:10.163Z,3.57
2022-09-10T05:53:38.171Z,3.57
2022-09-10T05:56:07.259Z,3.67
2022-09-10T05:58:35.148Z,3.60
2022-09-10T06:01:02.193Z,3.50
2022-09-10T06:03:30.805Z,3.63
2022-09-10T06:06:00.845Z,3.93
2022-09-10T06:08:32.279Z,3.93
2022-09-10T06:11:05.663Z,3.23
2022-09-10T06:13:42.179Z,3.20
2022-09-10T06:16:09.199Z,3.80
2022-09-10T06:18:35.969Z,3.03
2022-09-10T06:21:18.689Z,3.30
2022-09-10T06:23:53.449Z,6.00
2022-09-10T06:26:21.115Z,3.90
2022-09-10T06:28:49.838Z,3.10
2022-09-10T06:31:18.010Z,3.20
2022-09-10T06:33:46.836Z,3.43
2022-09-10T06:36:15.837Z,3.80
2022-09-10T06:38:44.919Z,3.70
2022-09-10T06:41:13.985Z,4.20
2022-09-10T06:43:47.622Z,4.33
2022-09-10T06:47:02.349Z,5.83
2022-09-10T06:49:15.744Z,4.97
2022-09-10T06:51:46.715Z,3.93
2022-09-10T06:54:14.616Z,4.90
2022-09-10T06:56:42.673Z,4.03
2022-09-10T06:59:09.922Z,4.53
2022-09-10T07:01:43.043Z,4.90
2022-09-10T07:04:10.300Z,4.53
2022-09-10T07:06:37.578Z,4.87
2022-09-10T07:09:14.484Z,4.80
2022-09-10T07:12:08.390Z,4.50
2022-09-10T07:14:37.174Z,4.10
2022-09-10T07:17:06.898Z,4.43
2022-09-10T07:19:36.158Z,4.40
2022-09-10T07:22:05.357Z,4.43
2022-09-10T07:24:33.947Z,3.93
2022-09-10T07:27:10.873Z,4.97
2022-09-10T07:29:38.502Z,4.47
2022-09-10T07:32:13.361Z,5.10
2022-09-10T07:34:40.494Z,5.20
2022-09-10T07:37:07.353Z,5.13
2022-09-10T07:39:34.257Z,4.80
2022-09-10T07:42:02.745Z,5.80
2022-09-10T07:44:33.411Z,5.57
2022-09-10T07:47:03.314Z,5.43
2022-09-10T07:49:32.780Z,5.60
2022-09-10T07:52:00.208Z,5.53
2022-09-10T07:54:31.727Z,5.93
2022-09-10T07:56:59.689Z,5.80
2022-09-10T07:59:26.944Z,5.97
2022-09-10T08:02:00.124Z,6.13
2022-09-10T08:04:35.929Z,5.57
2022-09-10T08:07:04.780Z,6.00
2022-09-10T08:09:31.523Z,5.87
2022-09-10T08:11:59.706Z,6.50
2022-09-10T08:14:26.368Z,6.27
2022-09-10T08:16:55.767Z,6.03
2022-09-10T08:19:22.753Z,6.20
2022-09-10T08:21:51.327Z,8.73
2022-09-10T08:24:23.671Z,8.53
2022-09-10T08:26:50.923Z,9.13
2022-09-10T08:29:18.524Z,8.17
2022-09-10T08:31:45.380Z,8.47
2022-09-10T08:34:20.060Z,9.23
2022-09-10T08:36:53.019Z,8.80
2022-09-10T08:39:20.334Z,9.07
2022-09-10T08:41:53.705Z,9.30
2022-09-10T08:44:49.848Z,9.73
2022-09-10T08:47:39.376Z,9.80
2022-09-10T08:50:24.673Z,9.30
2022-09-10T08:52:58.184Z,9.53
2022-09-10T08:55:32.115Z,8.37
2022-09-10T08:58:18.916Z,9.43
2022-09-10T09:00:48.148Z,10.47
2022-09-10T09:03:25.299Z,11.07
2022-09-10T09:05:58.001Z,10.10
2022-09-10T09:08:34.641Z,10.10
2022-09-10T09:11:21.719Z,9.90
2022-09-10T09:14:09.189Z,10.00
2022-09-10T09:17:07.502Z,9.63
2022-09-10T09:20:09.832Z,10.67
2022-09-10T09:22:55.405Z,14.00
2022-09-10T09:25:50.913Z,13.47
2022-09-10T09:28:33.431Z,11.73
2022-09-10T09:31:09.490Z,11.77
2022-09-10T09:33:37.558Z,11.20
2022-09-10T09:36:06.005Z,11.00
2022-09-10T09:38:41.390Z,10.40
2022-09-10T09:41:35.637Z,9.60
2022-09-10T09:44:27.593Z,9.97
2022-09-10T09:46:54.261Z,11.27
2022-09-10T09:49:21.553Z,10.80
2022-09-10T09:51:49.881Z,11.10
2022-09-10T09:57:16.258Z,10.20
2022-09-10T09:59:42.896Z,11.90
2022-09-10T10:02:17.316Z,10.30
2022-09-10T10:05:22.189Z,10.17
2022-09-10T10:07:49.017Z,8.03
2022-09-10T10:10:26.860Z,10.00
2022-09-10T10:12:55.154Z,10.03
2022-09-10T10:15:37.252Z,11.00
2022-09-10T10:18:28.962Z,10.43
2022-09-10T10:21:22.337Z,10.43
2022-09-10T10:23:49.460Z,9.80
2022-09-10T10:26:28.426Z,8.90
2022-09-10T10:29:06.890Z,9.30
2022-09-10T10:31:43.373Z,9.80
2022-09-10T10:34:23.162Z,10.33
2022-09-10T10:37:07.253Z,10.37
2022-09-10T10:39:49.239Z,10.03
2022-09-10T10:42:44.810Z,10.00
2022-09-10T10:45:36.512Z,9.40
2022-09-10T10:48:32.192Z,9.77
2022-09-10T10:51:18.244Z,9.93
2022-09-10T10:54:04.833Z,9.53
2022-09-10T10:57:10.351Z,10.13
2022-09-10T10:59:48.346Z,9.90
2022-09-10T11:02:23.749Z,9.07
2022-09-10T11:04:53.154Z,10.50
2022-09-10T11:07:40.437Z,8.73
2022-09-10T11:10:32.789Z,8.97
2022-09-10T11:13:12.917Z,8.73
2022-09-10T11:15:52.379Z,8.70
2022-09-10T11:18:36.522Z,8.17
2022-09-10T11:21:27.352Z,8.13
2022-09-10T11:24:25.463Z,8.50
2022-09-10T11:27:10.198Z,8.27
2022-09-10T11:29:42.705Z,7.87
2022-09-10T11:32:18.280Z,7.47
2022-09-10T11:34:53.076Z,7.20
2022-09-10T11:38:07.598Z,9.70
2022-09-10T11:40:56.198Z,7.17
2022-09-10T11:43:28.960Z,9.53
2022-09-10T11:45:59.361Z,8.70
2022-09-10T11:49:03.239Z,5.70
2022-09-10T11:51:37.656Z,8.10
2022-09-10T11:54:11.637Z,6.67
2022-09-10T11:56:53.388Z,7.13
2022-09-10T11:59:37.988Z,6.57
2022-09-10T12:02:24.092Z,6.17
2022-09-10T12:05:28.540Z,5.73
2022-09-10T12:08:43.936Z,5.20
2022-09-10T12:11:29.437Z,4.77
2022-09-10T12:13:57.419Z,4.97
2022-09-10T12:16:24.000Z,7.10
2022-09-10T12:18:53.505Z,5.70
2022-09-10T12:21:29.079Z,5.10
2022-09-10T12:23:56.840Z,4.37
2022-09-10T12:26:24.324Z,3.97
2022-09-10T12:28:53.687Z,3.73
2022-09-10T12:31:22.051Z,3.80
2022-09-10T12:33:50.957Z,4.13
2022-09-10T12:36:26.782Z,3.40
2022-09-10T12:39:21.705Z,4.07
2022-09-10T12:41:49.086Z,4.00
2022-09-10T12:44:36.434Z,4.10
2022-09-10T12:47:15.169Z,4.03
2022-09-10T12:49:54.840Z,4.37
2022-09-10T12:52:31.966Z,4.03
2022-09-10T12:55:31.896Z,4.33
2022-09-10T12:58:11.671Z,4.23
2022-09-10T13:00:59.672Z,3.53
2022-09-10T13:03:28.824Z,4.00
2022-09-10T13:06:01.893Z,3.23
2022-09-10T13:08:40.556Z,3.40
2022-09-10T13:11:15.725Z,3.50
2022-09-10T13:13:51.711Z,3.57
2022-09-10T13:16:38.454Z,3.50
2022-09-10T13:19:14.290Z,3.30
2022-09-10T13:21:41.037Z,3.67
2022-09-10T13:24:34.000Z,3.40
2022-09-10T13:27:12.556Z,3.50
2022-09-10T13:29:43.308Z,3.80
2022-09-10T13:32:29.503Z,3.53
2022-09-10T13:35:45.203Z,8.17
2022-09-10T13:38:30.684Z,17.80
2022-09-10T13:41:16.231Z,19.03
2022-09-10T13:43:53.374Z,4.63
2022-09-10T13:46:41.514Z,4.10
2022-09-10T13:49:20.521Z,4.70
2022-09-10T13:51:54.444Z,4.63
2022-09-10T13:54:34.415Z,5.63
2022-09-10T13:57:09.285Z,6.53
2022-09-10T13:59:36.912Z,6.30
2022-09-10T14:02:09.501Z,6.13
2022-09-10T14:04:44.921Z,5.07
2022-09-10T14:07:54.561Z,5.00
2022-09-10T14:10:22.855Z,6.70
2022-09-10T14:13:03.043Z,4.90
2022-09-10T14:15:38.999Z,4.60
2022-09-10T14:18:10.672Z,6.87
2022-09-10T14:20:38.274Z,5.27
2022-09-10T14:23:16.254Z,4.33
2022-09-10T14:25:44.619Z,5.70
2022-09-10T14:28:15.495Z,4.10
2022-09-10T14:30:50.535Z,4.10
2022-09-10T14:33:35.886Z,4.43
2022-09-10T14:36:28.668Z,3.77
2022-09-10T14:39:04.439Z,3.83
2022-09-10T14:41:35.979Z,5.07
2022-09-10T14:44:23.857Z,3.57
2022-09-10T14:47:12.718Z,3.87
2022-09-10T14:49:47.521Z,3.90
2022-09-10T14:52:14.707Z,4.33
2022-09-10T14:54:41.738Z,5.73
2022-09-10T14:57:17.476Z,4.33
2022-09-10T14:59:46.248Z,3.77
2022-09-10T15:02:26.548Z,3.50
2022-09-10T15:04:53.497Z,3.60
2022-09-10T15:07:20.639Z,3.10
2022-09-10T15:09:48.052Z,3.40
2022-09-10T15:12:26.165Z,3.30
2022-09-10T15:14:54.225Z,3.50
2022-09-10T15:17:21.133Z,4.07
2022-09-10T15:19:48.567Z,4.83
2022-09-10T15:22:28.627Z,4.27
2022-09-10T15:25:11.723Z,3.93
2022-09-10T15:27:38.769Z,3.63
2022-09-10T15:30:06.441Z,3.70
2022-09-10T15:32:33.046Z,4.53
2022-09-10T15:34:59.724Z,4.10
2022-09-10T15:37:26.991Z,3.90
2022-09-10T15:39:54.472Z,2.77
2022-09-10T15:42:21.466Z,4.17
2022-09-10T15:44:48.059Z,3.73
2022-09-10T15:47:14.874Z,4.70
2022-09-10T15:49:41.440Z,3.73
2022-09-10T15:52:08.252Z,2.40
2022-09-10T15:54:34.813Z,3.23
2022-09-10T15:57:01.489Z,2.80
2022-09-10T15:59:28.480Z,2.77
2022-09-10T16:01:55.108Z,2.63
2022-09-10T16:04:21.836Z,3.83
2022-09-10T16:06:48.406Z,3.47
2022-09-10T16:09:15.308Z,2.77
2022-09-10T16:11:43.283Z,4.40
2022-09-10T16:14:13.707Z,3.20
2022-09-10T16:16:40.873Z,3.23
2022-09-10T16:19:07.745Z,2.93
2022-09-10T16:21:36.845Z,2.87
2022-09-10T16:24:05.190Z,3.60
2022-09-10T16:26:41.188Z,2.90
2022-09-10T16:29:13.875Z,3.80
2022-09-10T16:31:41.039Z,3.20
2022-09-10T16:34:11.188Z,2.80
2022-09-10T16:36:39.104Z,3.10
2022-09-10T16:39:11.987Z,2.77
2022-09-10T16:41:43.745Z,3.30
2022-09-10T16:44:12.345Z,2.87
2022-09-10T16:46:39.283Z,3.07
2022-09-10T16:49:06.226Z,3.30
2022-09-10T16:51:34.887Z,3.63
2022-09-10T16:54:04.183Z,3.10
2022-09-10T16:56:53.774Z,3.17
2022-09-10T16:59:22.673Z,8.80
2022-09-10T17:01:51.551Z,3.77
2022-09-10T17:04:24.603Z,3.17
2022-09-10T17:06:55.160Z,3.70
2022-09-10T17:09:22.467Z,3.30
2022-09-10T17:11:49.122Z,3.10
2022-09-10T17:14:15.715Z,4.00
2022-09-10T17:16:43.420Z,3.50
2022-09-10T17:19:15.734Z,3.30
2022-09-10T17:21:44.809Z,3.03
2022-09-10T17:24:13.148Z,3.40
2022-09-10T17:26:41.305Z,3.37
2022-09-10T17:29:14.453Z,2.93
2022-09-10T17:31:41.526Z,3.70
2022-09-10T17:34:09.608Z,3.03
2022-09-10T17:36:36.810Z,3.37
2022-09-10T17:39:03.612Z,3.33
2022-09-10T17:41:30.510Z,3.70
2022-09-10T17:43:59.856Z,3.90
2022-09-10T17:46:27.092Z,3.57
2022-09-10T17:48:54.289Z,3.67
2022-09-10T17:51:24.017Z,3.43
2022-09-10T17:53:53.596Z,3.70
2022-09-10T17:56:20.901Z,3.67
2022-09-10T17:58:47.934Z,3.90
2022-09-10T18:01:23.472Z,4.67
2022-09-10T18:03:51.320Z,4.03
2022-09-10T18:06:18.090Z,5.07
2022-09-10T18:08:45.242Z,4.23
2022-09-10T18:11:24.541Z,4.30
2022-09-10T18:13:53.432Z,4.30
2022-09-10T18:16:24.239Z,19.77
2022-09-10T18:18:56.398Z,4.93
2022-09-10T18:21:25.627Z,5.00
2022-09-10T18:24:04.490Z,4.90
2022-09-10T18:26:33.648Z,4.53
2022-09-10T18:29:07.643Z,5.80
2022-09-10T18:31:37.111Z,5.77
2022-09-10T18:34:05.566Z,6.27
2022-09-10T18:36:33.910Z,7.13
2022-09-10T18:39:10.825Z,7.00
2022-09-10T18:41:38.856Z,7.97
2022-09-10T18:44:08.132Z,11.00
2022-09-10T18:46:35.499Z,8.43
2022-09-10T18:49:03.462Z,8.53
2022-09-10T18:51:31.055Z,8.30
2022-09-10T18:54:00.407Z,9.23
2022-09-10T18:56:29.812Z,9.63
2022-09-10T18:59:04.614Z,9.97
2022-09-10T19:01:32.032Z,11.07
2022-09-10T19:03:58.961Z,11.10
2022-09-10T19:06:28.784Z,11.60
2022-09-10T19:09:01.205Z,12.43
2022-09-10T19:11:33.005Z,12.33
2022-09-10T19:14:01.215Z,12.13
2022-09-10T19:16:30.350Z,13.00
2022-09-10T19:19:01.006Z,13.50
2022-09-10T19:21:29.089Z,13.63
2022-09-10T19:24:00.432Z,14.77
2022-09-10T19:26:29.456Z,14.23
2022-09-10T19:28:57.353Z,14.53
2022-09-10T19:31:25.941Z,16.17
2022-09-10T19:33:57.963Z,16.87
2022-09-10T19:36:27.493Z,15.90
2022-09-10T19:38:54.861Z,16.17
2022-09-10T19:41:21.979Z,17.47
2022-09-10T19:43:50.519Z,17.00
2022-09-10T19:46:18.997Z,16.53
2022-09-10T19:48:46.664Z,16.60
2022-09-10T19:51:15.948Z,15.80
2022-09-10T19:53:42.768Z,16.90
2022-09-10T19:56:18.244Z,17.90
2022-09-10T19:58:52.022Z,17.13
2022-09-10T20:01:20.223Z,17.27
2022-09-10T20:03:48.099Z,17.20
2022-09-10T20:06:18.229Z,17.40
2022-09-10T20:08:47.094Z,18.30
2022-09-10T20:11:19.842Z,18.70
2022-09-10T20:13:46.807Z,18.60
2022-09-10T20:16:16.868Z,19.17
2022-09-10T20:18:43.531Z,17.73
2022-09-10T20:21:22.806Z,18.43
2022-09-10T20:23:51.891Z,19.40
2022-09-10T20:26:27.188Z,18.87
2022-09-10T20:29:00.595Z,20.17
2022-09-10T20:31:31.177Z,19.13
2022-09-10T20:34:00.438Z,19.40
2022-09-10T20:36:28.373Z,20.23
2022-09-10T20:38:55.840Z,19.43
2022-09-10T20:41:23.950Z,19.27
2022-09-10T20:43:51.694Z,19.00
2022-09-10T20:46:19.922Z,20.40
2022-09-10T20:48:49.287Z,21.03
2022-09-10T20:51:17.791Z,20.63
2022-09-10T20:53:44.936Z,20.57
2022-09-10T20:56:18.010Z,21.03
2022-09-10T20:58:45.819Z,21.20
2022-09-10T21:01:21.539Z,21.57
2022-09-10T21:03:50.296Z,21.83
2022-09-10T21:06:20.021Z,21.37
2022-09-10T21:08:47.844Z,21.77
2022-09-10T21:11:17.159Z,20.97
2022-09-10T21:13:49.642Z,22.43
2022-09-10T21:16:23.047Z,21.73
2022-09-10T21:18:54.639Z,20.83
2022-09-10T21:21:25.326Z,22.73
2022-09-10T21:23:54.030Z,21.40
2022-09-10T21:26:25.211Z,22.23
2022-09-10T21:28:58.033Z,22.33
2022-09-10T21:31:29.928Z,22.60
2022-09-10T21:34:02.464Z,21.40
2022-09-10T21:36:31.675Z,22.17
2022-09-10T21:39:00.347Z,21.37
2022-09-10T21:41:32.405Z,23.27
2022-09-10T21:44:00.653Z,22.13
2022-09-10T21:46:27.887Z,23.70
2022-09-10T21:48:55.123Z,23.83
2022-09-10T21:51:22.721Z,21.07
2022-09-10T21:53:54.760Z,23.67
2022-09-10T21:56:22.654Z,23.53
2022-09-10T21:58:49.549Z,23.57
2022-09-10T22:01:19.710Z,22.43
2022-09-10T22:03:47.725Z,23.87
2022-09-10T22:06:23.151Z,23.83
2022-09-10T22:08:57.992Z,23.07
2022-09-10T22:11:46.732Z,22.37
2022-09-10T22:14:16.024Z,22.43
2022-09-10T22:16:42.997Z,23.27
2022-09-10T22:19:14.113Z,22.27
2022-09-10T22:21:40.984Z,22.03
2022-09-10T22:24:09.916Z,21.93
2022-09-10T22:26:42.274Z,21.87
2022-09-10T22:29:09.628Z,23.37
2022-09-10T22:31:36.835Z,21.10
2022-09-10T22:34:06.871Z,22.67
2022-09-10T22:36:35.729Z,23.53
2022-09-10T22:39:08.330Z,23.90
2022-09-10T22:41:36.192Z,22.80
2022-09-10T22:44:03.358Z,23.70
2022-09-10T22:46:30.840Z,23.63
2022-09-10T22:48:57.821Z,23.70
2022-09-10T22:51:27.560Z,22.63
2022-09-10T22:53:55.235Z,22.57
2022-09-10T22:56:23.409Z,23.40
2022-09-10T22:58:51.519Z,21.97
2022-09-10T23:01:20.530Z,22.37
2022-09-10T23:03:48.460Z,22.33
2022-09-10T23:06:22.867Z,23.17
2022-09-10T23:08:51.795Z,22.90
2022-09-10T23:11:29.069Z,23.17
2022-09-10T23:14:02.477Z,23.23
2022-09-10T23:16:32.317Z,22.60
2022-09-10T23:19:00.796Z,23.07
2022-09-10T23:21:29.504Z,23.77
2022-09-10T23:23:58.508Z,23.90
2022-09-10T23:26:25.918Z,23.23
2022-09-10T23:28:52.870Z,24.40
2022-09-10T23:31:21.576Z,24.07
2022-09-10T23:33:55.036Z,23.13
2022-09-10T23:36:22.583Z,23.50
2022-09-10T23:38:49.294Z,24.10
2022-09-10T23:41:16.064Z,23.83
2022-09-10T23:43:43.650Z,24.70
2022-09-10T23:46:11.217Z,23.97
2022-09-10T23:48:37.943Z,23.53
2022-09-10T23:51:06.170Z,24.13
2022-09-10T23:53:33.396Z,23.70
2022-09-10T23:56:02.616Z,22.60
2022-09-10T23:58:29.265Z,22.80
